createdAt,value
2023-04-15T00:00:08.614Z,56.09
2023-04-15T00:03:02.690Z,55.74
2023-04-15T00:05:32.014Z,55.28
2023-04-15T00:08:00.169Z,55.77
2023-04-15T00:10:28.778Z,55.30
2023-04-15T00:12:56.545Z,56.34
2023-04-15T00:15:24.535Z,56.17
2023-04-15T00:17:52.560Z,56.34
2023-04-15T00:20:21.225Z,57.14
2023-04-15T00:22:49.019Z,57.49
2023-04-15T00:25:17.485Z,56.75
2023-04-15T00:27:45.160Z,56.16
2023-04-15T00:30:15.989Z,58.02
2023-04-15T00:32:44.006Z,57.01
2023-04-15T00:35:12.568Z,57.07
2023-04-15T00:37:40.680Z,57.28
2023-04-15T00:40:14.089Z,57.32
2023-04-15T00:42:42.137Z,58.14
2023-04-15T00:45:11.165Z,58.07
2023-04-15T00:47:41.938Z,57.67
2023-04-15T00:50:11.516Z,57.54
2023-04-15T00:52:40.138Z,57.84
2023-04-15T00:55:09.515Z,58.11
2023-04-15T00:57:38.916Z,58.00
2023-04-15T01:00:12.174Z,57.86
2023-04-15T01:02:40.520Z,57.74
2023-04-15T01:05:09.773Z,57.96
2023-04-15T01:07:38.228Z,58.58
2023-04-15T01:10:08.486Z,58.51
2023-04-15T01:12:38.163Z,59.03
2023-04-15T01:15:07.182Z,59.19
2023-04-15T01:17:35.727Z,59.05
2023-04-15T01:20:05.644Z,59.53
2023-04-15T01:22:35.109Z,58.77
2023-04-15T01:25:13.543Z,59.13
2023-04-15T01:27:42.803Z,59.22
2023-04-15T01:30:11.854Z,59.41
2023-04-15T01:32:39.763Z,58.80
2023-04-15T01:35:27.376Z,58.93
2023-04-15T01:37:56.712Z,58.62
2023-04-15T01:40:25.286Z,58.12
2023-04-15T01:42:54.525Z,59.20
2023-04-15T01:45:24.125Z,58.64
2023-04-15T01:47:53.721Z,58.96
2023-04-15T01:50:23.071Z,58.45
2023-04-15T01:52:52.475Z,59.08
2023-04-15T01:55:21.976Z,58.55
2023-04-15T01:57:50.964Z,58.65
2023-04-15T02:00:20.533Z,58.51
2023-04-15T02:02:49.974Z,58.14
2023-04-15T02:05:19.503Z,59.07
2023-04-15T02:07:50.593Z,58.51
2023-04-15T02:10:19.992Z,59.34
2023-04-15T02:12:49.048Z,58.58
2023-04-15T02:15:18.529Z,57.01
2023-04-15T02:17:51.254Z,58.07
2023-04-15T02:20:21.758Z,58.14
2023-04-15T02:22:50.970Z,58.10
2023-04-15T02:25:20.852Z,57.95
2023-04-15T02:27:50.044Z,58.09
2023-04-15T02:30:19.552Z,57.90
2023-04-15T02:32:48.779Z,57.75
2023-04-15T02:35:20.216Z,56.90
2023-04-15T02:37:49.451Z,56.97
2023-04-15T02:40:20.111Z,57.03
2023-04-15T02:42:49.445Z,56.63
2023-04-15T02:45:23.996Z,56.76
2023-04-15T02:47:53.137Z,56.70
2023-04-15T02:50:23.997Z,57.03
2023-04-15T02:52:53.084Z,56.97
2023-04-15T02:55:22.856Z,56.77
2023-04-15T02:57:52.238Z,56.72
2023-04-15T03:00:21.900Z,56.69
2023-04-15T03:02:56.862Z,56.54
2023-04-15T03:05:26.968Z,55.91
2023-04-15T03:07:56.462Z,56.46
2023-04-15T03:10:26.149Z,56.47
2023-04-15T03:12:55.109Z,52.03
2023-04-15T03:15:26.331Z,54.23
2023-04-15T03:17:56.821Z,54.16
2023-04-15T03:20:26.522Z,53.62
2023-04-15T03:22:55.550Z,50.82
2023-04-15T03:25:26.323Z,52.16
2023-04-15T03:27:55.326Z,52.85
2023-04-15T03:30:24.810Z,52.91
2023-04-15T03:32:54.001Z,53.06
2023-04-15T03:35:23.709Z,52.59
2023-04-15T03:37:52.644Z,52.47
2023-04-15T03:40:22.605Z,52.88
2023-04-15T03:42:51.754Z,51.70
2023-04-15T03:45:21.122Z,52.15
2023-04-15T03:47:50.394Z,52.13
2023-04-15T03:50:19.720Z,52.38
2023-04-15T03:52:50.644Z,50.55
2023-04-15T03:55:20.993Z,51.63
2023-04-15T03:57:50.077Z,51.83
2023-04-15T04:00:20.003Z,52.00
2023-04-15T04:02:49.472Z,52.73
2023-04-15T04:05:19.242Z,52.64
2023-04-15T04:07:48.223Z,51.55
2023-04-15T04:10:18.195Z,48.30
2023-04-15T04:12:47.384Z,47.97
2023-04-15T04:15:16.920Z,46.58
2023-04-15T04:17:45.990Z,51.12
2023-04-15T04:20:15.525Z,51.77
2023-04-15T04:22:44.584Z,50.84
2023-04-15T04:25:14.152Z,50.11
2023-04-15T04:27:43.356Z,50.45
2023-04-15T04:30:13.166Z,49.65
2023-04-15T04:32:42.350Z,50.02
2023-04-15T04:35:11.755Z,50.45
2023-04-15T04:37:40.861Z,50.05
2023-04-15T04:40:11.154Z,50.31
2023-04-15T04:42:40.903Z,49.15
2023-04-15T04:45:10.505Z,49.12
2023-04-15T04:47:39.665Z,49.83
2023-04-15T04:50:09.458Z,49.51
2023-04-15T04:52:39.094Z,48.54
2023-04-15T04:55:08.946Z,48.37
2023-04-15T04:57:39.756Z,48.49
2023-04-15T05:00:09.643Z,48.04
2023-04-15T05:02:38.995Z,47.58
2023-04-15T05:05:08.962Z,48.13
2023-04-15T05:07:38.901Z,48.53
2023-04-15T05:10:09.104Z,48.30
2023-04-15T05:12:39.047Z,46.82
2023-04-15T05:15:09.059Z,47.00
2023-04-15T05:17:38.169Z,48.11
2023-04-15T05:20:08.397Z,47.06
2023-04-15T05:22:37.646Z,47.45
2023-04-15T05:25:07.588Z,47.88
2023-04-15T05:27:37.063Z,48.17
2023-04-15T05:30:07.512Z,47.30
2023-04-15T05:32:36.693Z,47.45
2023-04-15T05:35:07.032Z,47.43
2023-04-15T05:37:36.430Z,46.77
2023-04-15T05:40:06.403Z,45.29
2023-04-15T05:42:35.953Z,45.39
2023-04-15T05:45:09.610Z,45.21
2023-04-15T05:47:38.937Z,44.63
2023-04-15T05:50:08.601Z,43.34
2023-04-15T05:52:37.624Z,43.21
2023-04-15T05:55:07.504Z,42.53
2023-04-15T05:57:36.913Z,43.40
2023-04-15T06:00:06.932Z,43.69
2023-04-15T06:02:42.122Z,44.41
2023-04-15T06:05:12.203Z,43.44
2023-04-15T06:07:41.372Z,43.42
2023-04-15T06:10:11.310Z,43.08
2023-04-15T06:12:40.272Z,43.02
2023-04-15T06:15:13.026Z,43.04
2023-04-15T06:17:42.078Z,42.40
2023-04-15T06:20:12.321Z,39.39
2023-04-15T06:22:41.489Z,38.07
2023-04-15T06:25:11.275Z,37.38
2023-04-15T06:27:40.931Z,37.33
2023-04-15T06:30:10.801Z,36.61
2023-04-15T06:32:39.914Z,37.03
2023-04-15T06:35:09.898Z,37.23
2023-04-15T06:37:39.055Z,36.87
2023-04-15T06:40:10.379Z,37.21
2023-04-15T06:42:39.527Z,37.46
2023-04-15T06:45:09.774Z,37.58
2023-04-15T06:47:38.962Z,37.02
2023-04-15T06:50:09.581Z,37.10
2023-04-15T06:52:38.757Z,37.43
2023-04-15T06:55:09.108Z,36.80
2023-04-15T06:57:38.197Z,37.27
2023-04-15T07:00:08.250Z,37.60
2023-04-15T07:02:37.397Z,37.11
2023-04-15T07:05:07.687Z,37.10
2023-04-15T07:07:37.033Z,37.63
2023-04-15T07:10:07.086Z,37.61
2023-04-15T07:12:36.579Z,37.78
2023-04-15T07:15:07.138Z,37.49
2023-04-15T07:17:36.414Z,37.85
2023-04-15T07:20:06.213Z,37.42
2023-04-15T07:22:35.432Z,37.39
2023-04-15T07:25:05.295Z,37.45
2023-04-15T07:27:34.212Z,37.91
2023-04-15T07:30:03.929Z,38.07
2023-04-15T07:32:32.970Z,37.82
2023-04-15T07:35:04.011Z,38.11
2023-04-15T07:37:33.857Z,38.43
2023-04-15T07:40:07.546Z,38.24
2023-04-15T07:42:38.507Z,38.51
2023-04-15T07:45:09.834Z,37.87
2023-04-15T07:47:39.049Z,38.26
2023-04-15T07:50:09.789Z,37.89
2023-04-15T07:52:39.705Z,37.57
2023-04-15T07:55:09.888Z,38.06
2023-04-15T07:57:38.954Z,38.34
2023-04-15T08:00:09.254Z,38.43
2023-04-15T08:02:44.891Z,37.98
2023-04-15T08:05:15.229Z,38.13
2023-04-15T08:07:44.262Z,38.17
2023-04-15T08:10:13.721Z,38.18
2023-04-15T08:12:43.138Z,37.83
2023-04-15T08:15:13.470Z,37.67
2023-04-15T08:17:43.449Z,37.57
2023-04-15T08:20:13.658Z,37.26
2023-04-15T08:22:42.973Z,37.50
2023-04-15T08:25:12.284Z,36.95
2023-04-15T08:27:41.467Z,36.89
2023-04-15T08:30:11.014Z,36.58
2023-04-15T08:32:40.260Z,36.75
2023-04-15T08:35:10.758Z,36.14
2023-04-15T08:37:39.936Z,36.26
2023-04-15T08:40:10.175Z,35.99
2023-04-15T08:42:45.007Z,36.05
2023-04-15T08:45:15.670Z,35.87
2023-04-15T08:47:47.853Z,36.02
2023-04-15T08:50:18.725Z,35.57
2023-04-15T08:52:48.337Z,35.15
2023-04-15T08:55:18.272Z,35.29
2023-04-15T08:57:47.483Z,35.17
2023-04-15T09:00:17.639Z,34.71
2023-04-15T09:02:47.216Z,35.03
2023-04-15T09:05:17.733Z,35.60
2023-04-15T09:07:46.944Z,35.23
2023-04-15T09:10:16.404Z,34.79
2023-04-15T09:12:45.657Z,34.80
2023-04-15T09:15:16.769Z,34.84
2023-04-15T09:17:46.607Z,34.98
2023-04-15T09:20:19.013Z,34.67
2023-04-15T09:22:49.599Z,35.08
2023-04-15T09:25:25.188Z,35.18
2023-04-15T09:27:57.195Z,35.05
2023-04-15T09:30:28.525Z,35.27
2023-04-15T09:33:02.616Z,34.49
2023-04-15T09:35:32.291Z,34.42
2023-04-15T09:38:10.213Z,34.71
2023-04-15T09:40:42.770Z,34.84
2023-04-15T09:43:14.708Z,34.52
2023-04-15T09:45:54.121Z,34.58
2023-04-15T09:48:27.463Z,35.00
2023-04-15T09:51:00.703Z,34.16
2023-04-15T09:53:31.814Z,34.23
2023-04-15T09:56:02.871Z,33.62
2023-04-15T09:58:35.386Z,33.50
2023-04-15T10:01:09.532Z,33.37
2023-04-15T10:03:42.634Z,33.51
2023-04-15T10:06:12.380Z,33.39
2023-04-15T10:08:42.157Z,33.54
2023-04-15T10:11:13.006Z,33.21
2023-04-15T10:13:42.225Z,32.90
2023-04-15T10:16:17.130Z,33.48
2023-04-15T10:18:51.826Z,33.22
2023-04-15T10:21:22.951Z,32.95
2023-04-15T10:23:52.534Z,32.84
2023-04-15T10:26:22.687Z,33.12
2023-04-15T10:28:53.860Z,32.85
2023-04-15T10:31:24.004Z,32.98
2023-04-15T10:33:53.978Z,32.51
2023-04-15T10:36:23.783Z,32.82
2023-04-15T10:38:52.979Z,32.81
2023-04-15T10:41:34.739Z,32.44
2023-04-15T10:44:05.711Z,32.16
2023-04-15T10:46:42.039Z,32.49
2023-04-15T10:49:15.247Z,32.40
2023-04-15T10:51:53.128Z,32.45
2023-04-15T10:54:25.170Z,32.43
2023-04-15T10:57:06.789Z,32.57
2023-04-15T11:00:04.775Z,32.27
2023-04-15T11:02:47.735Z,31.98
2023-04-15T11:05:19.108Z,32.25
2023-04-15T11:07:56.784Z,32.56
2023-04-15T11:10:26.118Z,32.39
2023-04-15T11:13:03.441Z,31.73
2023-04-15T11:15:38.133Z,31.95
2023-04-15T11:18:18.193Z,31.91
2023-04-15T11:20:52.522Z,32.01
2023-04-15T11:23:58.063Z,31.93
2023-04-15T11:26:27.537Z,32.40
2023-04-15T11:28:57.305Z,32.34
2023-04-15T11:31:28.991Z,32.11
2023-04-15T11:34:01.874Z,32.42
2023-04-15T11:36:32.421Z,32.65
2023-04-15T11:39:01.915Z,32.40
2023-04-15T11:41:31.022Z,31.82
2023-04-15T11:44:00.713Z,31.96
2023-04-15T11:46:32.188Z,32.05
2023-04-15T11:49:01.936Z,32.38
2023-04-15T11:51:36.649Z,32.01
2023-04-15T11:54:05.319Z,31.90
2023-04-15T11:56:34.440Z,32.43
2023-04-15T11:59:03.249Z,32.30
2023-04-15T12:01:36.800Z,32.13
2023-04-15T12:04:17.390Z,32.74
2023-04-15T12:06:45.896Z,32.35
2023-04-15T12:09:15.632Z,32.27
2023-04-15T12:11:57.759Z,32.61
2023-04-15T12:14:33.538Z,32.30
2023-04-15T12:17:03.158Z,32.34
2023-04-15T12:19:35.795Z,32.65
2023-04-15T12:22:11.404Z,32.51
2023-04-15T12:24:40.105Z,32.25
2023-04-15T12:27:12.455Z,32.32
2023-04-15T12:29:43.357Z,32.22
2023-04-15T12:32:16.293Z,32.40
2023-04-15T12:34:58.472Z,32.36
2023-04-15T12:37:26.585Z,32.32
2023-04-15T12:39:55.134Z,32.41
2023-04-15T12:42:22.954Z,32.14
2023-04-15T12:44:51.086Z,31.94
2023-04-15T12:47:18.901Z,32.15
2023-04-15T12:49:47.361Z,31.85
2023-04-15T12:52:15.471Z,32.23
2023-04-15T12:54:43.502Z,32.00
2023-04-15T12:57:11.351Z,32.40
2023-04-15T12:59:39.492Z,32.21
2023-04-15T13:02:07.687Z,32.21
2023-04-15T13:04:35.967Z,31.54
2023-04-15T13:07:04.291Z,31.24
2023-04-15T13:09:32.682Z,31.95
2023-04-15T13:12:00.791Z,32.29
2023-04-15T13:14:29.080Z,32.23
2023-04-15T13:16:57.284Z,31.77
2023-04-15T13:19:26.102Z,31.76
2023-04-15T13:21:53.981Z,32.46
2023-04-15T13:24:21.989Z,32.08
2023-04-15T13:26:50.497Z,32.09
2023-04-15T13:29:18.873Z,32.35
2023-04-15T13:31:46.617Z,31.84
2023-04-15T13:34:14.658Z,31.87
2023-04-15T13:36:42.484Z,32.23
2023-04-15T13:39:10.492Z,32.06
2023-04-15T13:41:38.343Z,32.63
2023-04-15T13:44:06.694Z,32.35
2023-04-15T13:46:34.802Z,32.59
2023-04-15T13:49:02.858Z,32.26
2023-04-15T13:51:32.209Z,32.40
2023-04-15T13:54:00.274Z,32.87
2023-04-15T13:56:28.041Z,32.50
2023-04-15T13:58:59.205Z,32.57
2023-04-15T14:01:27.508Z,32.13
2023-04-15T14:03:56.142Z,32.41
2023-04-15T14:06:24.027Z,32.10
2023-04-15T14:08:53.077Z,32.20
2023-04-15T14:11:20.951Z,32.37
2023-04-15T14:13:49.151Z,32.67
2023-04-15T14:16:17.112Z,32.60
2023-04-15T14:18:45.166Z,32.74
2023-04-15T14:21:13.244Z,32.90
2023-04-15T14:23:41.595Z,32.91
2023-04-15T14:26:09.332Z,33.06
2023-04-15T14:28:39.565Z,33.10
2023-04-15T14:31:07.385Z,32.96
2023-04-15T14:33:35.530Z,33.29
2023-04-15T14:36:03.479Z,33.33
2023-04-15T14:38:31.923Z,33.34
2023-04-15T14:40:59.748Z,33.57
2023-04-15T14:43:27.968Z,33.39
2023-04-15T14:45:56.163Z,32.96
2023-04-15T14:48:24.577Z,33.51
2023-04-15T14:50:53.680Z,33.24
2023-04-15T14:53:22.203Z,33.53
2023-04-15T14:55:49.933Z,33.69
2023-04-15T14:58:18.085Z,33.74
2023-04-15T15:00:46.323Z,33.61
2023-04-15T15:03:15.023Z,33.92
2023-04-15T15:05:47.543Z,34.43
2023-04-15T15:08:15.952Z,34.20
2023-04-15T15:10:48.384Z,34.11
2023-04-15T15:13:19.009Z,34.56
2023-04-15T15:15:49.551Z,34.26
2023-04-15T15:18:19.571Z,34.77
2023-04-15T15:20:47.959Z,34.90
2023-04-15T15:23:16.167Z,34.89
2023-04-15T15:25:44.776Z,35.21
2023-04-15T15:28:13.027Z,35.07
2023-04-15T15:30:40.967Z,35.30
2023-04-15T15:33:09.072Z,35.38
2023-04-15T15:35:37.136Z,35.72
2023-04-15T15:38:05.306Z,35.84
2023-04-15T15:40:33.429Z,35.90
2023-04-15T15:43:01.553Z,35.71
2023-04-15T15:45:29.285Z,35.92
2023-04-15T15:47:58.693Z,36.11
2023-04-15T15:50:26.682Z,36.10
2023-04-15T15:52:55.413Z,36.18
2023-04-15T15:55:25.600Z,36.51
2023-04-15T15:57:54.718Z,36.56
2023-04-15T16:00:23.476Z,36.64
2023-04-15T16:03:06.663Z,36.81
2023-04-15T16:05:36.409Z,36.87
2023-04-15T16:08:04.738Z,37.04
2023-04-15T16:10:32.726Z,37.29
2023-04-15T16:13:01.150Z,37.48
2023-04-15T16:15:29.071Z,37.24
2023-04-15T16:17:57.290Z,37.46
2023-04-15T16:20:25.092Z,37.05
2023-04-15T16:22:53.278Z,37.16
2023-04-15T16:25:21.195Z,37.30
2023-04-15T16:27:59.390Z,37.70
2023-04-15T16:30:31.535Z,37.40
2023-04-15T16:32:59.843Z,37.96
2023-04-15T16:35:27.706Z,38.38
2023-04-15T16:37:55.897Z,38.15
2023-04-15T16:40:23.947Z,38.27
2023-04-15T16:42:52.192Z,38.69
2023-04-15T16:45:19.970Z,38.46
2023-04-15T16:47:48.224Z,39.06
2023-04-15T16:50:16.210Z,38.37
2023-04-15T16:52:44.540Z,38.18
2023-04-15T16:55:12.342Z,38.29
2023-04-15T16:58:00.524Z,38.32
2023-04-15T17:00:29.914Z,38.46
2023-04-15T17:02:58.684Z,38.63
2023-04-15T17:05:29.610Z,38.48
2023-04-15T17:07:57.961Z,38.79
2023-04-15T17:10:25.767Z,38.47
2023-04-15T17:12:56.824Z,38.68
2023-04-15T17:15:25.298Z,38.77
2023-04-15T17:18:04.780Z,38.90
2023-04-15T17:20:35.829Z,38.85
2023-04-15T17:23:04.532Z,38.41
2023-04-15T17:25:32.906Z,37.90
2023-04-15T17:28:05.215Z,38.08
2023-04-15T17:30:34.648Z,37.79
2023-04-15T17:33:55.098Z,38.35
2023-04-15T17:36:31.178Z,39.10
2023-04-15T17:39:19.731Z,38.68
2023-04-15T17:42:07.678Z,38.53
2023-04-15T17:44:56.415Z,38.82
2023-04-15T17:47:44.790Z,38.84
2023-04-15T17:50:33.267Z,39.11
2023-04-15T17:53:21.183Z,39.19
2023-04-15T17:56:09.675Z,39.19
2023-04-15T17:58:58.718Z,39.39
2023-04-15T18:01:46.966Z,40.13
2023-04-15T18:04:34.802Z,39.75
2023-04-15T18:07:23.044Z,39.52
2023-04-15T18:10:11.397Z,39.92
2023-04-15T18:12:59.816Z,39.70
2023-04-15T18:15:48.930Z,40.20
2023-04-15T18:18:37.117Z,40.65
2023-04-15T18:21:05.102Z,40.75
2023-04-15T18:23:33.429Z,40.70
2023-04-15T18:26:01.347Z,40.64
2023-04-15T18:28:31.155Z,40.58
2023-04-15T18:30:59.155Z,40.90
2023-04-15T18:33:27.622Z,40.52
2023-04-15T18:35:57.639Z,40.79
2023-04-15T18:38:26.015Z,41.11
2023-04-15T18:40:53.900Z,41.22
2023-04-15T18:43:22.171Z,41.28
2023-04-15T18:45:52.070Z,41.55
2023-04-15T18:48:20.681Z,41.84
2023-04-15T18:50:49.355Z,42.09
2023-04-15T18:53:17.885Z,41.86
2023-04-15T18:55:45.963Z,41.80
2023-04-15T18:58:14.238Z,41.81
2023-04-15T19:00:44.030Z,42.13
2023-04-15T19:03:12.685Z,42.09
2023-04-15T19:05:40.724Z,42.49
2023-04-15T19:08:09.055Z,42.82
2023-04-15T19:10:37.108Z,42.78
2023-04-15T19:13:05.275Z,42.72
2023-04-15T19:15:33.086Z,42.69
2023-04-15T19:18:01.581Z,42.83
2023-04-15T19:20:29.496Z,42.60
2023-04-15T19:22:57.666Z,42.88
2023-04-15T19:25:25.829Z,43.12
2023-04-15T19:27:53.910Z,43.07
2023-04-15T19:30:22.127Z,43.08
2023-04-15T19:32:50.681Z,43.66
2023-04-15T19:35:18.478Z,43.52
2023-04-15T19:37:48.098Z,43.09
2023-04-15T19:40:16.174Z,43.29
2023-04-15T19:42:44.297Z,43.00
2023-04-15T19:45:12.112Z,43.67
2023-04-15T19:47:40.587Z,43.00
2023-04-15T19:50:10.277Z,43.13
2023-04-15T19:52:38.711Z,43.53
2023-04-15T19:55:06.877Z,43.68
2023-04-15T19:57:35.146Z,44.10
2023-04-15T20:00:03.257Z,44.45
2023-04-15T20:02:34.367Z,44.97
2023-04-15T20:05:02.676Z,45.41
2023-04-15T20:07:30.985Z,45.11
2023-04-15T20:09:58.796Z,45.69
2023-04-15T20:12:50.924Z,45.61
2023-04-15T20:15:15.314Z,45.32
2023-04-15T20:17:43.700Z,45.18
2023-04-15T20:20:11.594Z,45.53
2023-04-15T20:22:39.542Z,45.80
2023-04-15T20:25:08.261Z,46.66
2023-04-15T20:27:36.216Z,46.11
2023-04-15T20:30:05.323Z,46.39
2023-04-15T20:32:36.904Z,47.05
2023-04-15T20:35:06.161Z,47.25
2023-04-15T20:37:34.230Z,47.56
2023-04-15T20:40:02.667Z,47.36
2023-04-15T20:42:34.813Z,47.43
2023-04-15T20:45:03.469Z,48.09
2023-04-15T20:47:31.786Z,48.39
2023-04-15T20:50:00.373Z,48.92
2023-04-15T20:52:28.314Z,47.68
2023-04-15T20:54:56.557Z,48.00
2023-04-15T20:57:25.117Z,48.34
2023-04-15T20:59:53.523Z,47.56
2023-04-15T21:02:23.600Z,47.72
2023-04-15T21:04:52.353Z,48.05
2023-04-15T21:07:20.097Z,47.97
2023-04-15T21:09:48.221Z,47.94
2023-04-15T21:12:16.259Z,48.49
2023-04-15T21:14:45.301Z,48.28
2023-04-15T21:17:13.361Z,47.80
2023-04-15T21:19:42.689Z,47.36
2023-04-15T21:22:10.557Z,47.67
2023-04-15T21:24:38.746Z,48.28
2023-04-15T21:27:07.305Z,48.02
2023-04-15T21:29:35.422Z,49.66
2023-04-15T21:32:03.214Z,49.35
2023-04-15T21:34:31.422Z,49.61
2023-04-15T21:36:59.307Z,48.85
2023-04-15T21:39:27.496Z,48.50
2023-04-15T21:41:57.077Z,48.44
2023-04-15T21:44:25.674Z,47.75
2023-04-15T21:46:54.346Z,48.75
2023-04-15T21:49:24.928Z,49.16
2023-04-15T21:51:53.382Z,49.57
2023-04-15T21:54:21.460Z,48.75
2023-04-15T21:56:50.323Z,48.23
2023-04-15T21:59:18.667Z,48.95
2023-04-15T22:01:46.820Z,48.84
2023-04-15T22:04:16.216Z,50.49
2023-04-15T22:06:45.048Z,49.98
2023-04-15T22:09:14.773Z,49.57
2023-04-15T22:11:44.621Z,48.86
2023-04-15T22:14:21.520Z,49.92
2023-04-15T22:16:49.815Z,49.52
2023-04-15T22:19:18.571Z,49.78
2023-04-15T22:21:46.434Z,49.72
2023-04-15T22:24:38.063Z,49.49
2023-04-15T22:27:03.019Z,49.28
2023-04-15T22:29:31.693Z,49.72
2023-04-15T22:31:59.658Z,50.34
2023-04-15T22:34:27.855Z,50.25
2023-04-15T22:36:55.825Z,50.50
2023-04-15T22:39:23.923Z,50.29
2023-04-15T22:41:51.763Z,50.63
2023-04-15T22:44:19.828Z,50.77
2023-04-15T22:46:47.557Z,50.82
2023-04-15T22:49:15.829Z,50.48
2023-04-15T22:51:44.059Z,50.42
2023-04-15T22:54:12.122Z,50.89
2023-04-15T22:56:39.880Z,50.54
2023-04-15T22:59:08.301Z,50.93
2023-04-15T23:01:36.438Z,51.29
2023-04-15T23:04:08.468Z,51.87
2023-04-15T23:06:52.759Z,51.98
2023-04-15T23:09:23.992Z,52.14
2023-04-15T23:14:37.637Z,52.13
2023-04-15T23:17:05.748Z,52.17
2023-04-15T23:19:33.910Z,52.43
2023-04-15T23:22:01.962Z,52.80
2023-04-15T23:24:30.058Z,52.94
2023-04-15T23:26:57.703Z,52.65
2023-04-15T23:29:25.982Z,52.84
2023-04-15T23:31:53.691Z,52.78
2023-04-15T23:34:21.791Z,53.16
2023-04-15T23:36:49.714Z,53.10
2023-04-15T23:39:17.818Z,52.84
2023-04-15T23:41:45.506Z,53.99
2023-04-15T23:44:13.692Z,53.88
2023-04-15T23:46:41.659Z,53.73
2023-04-15T23:49:09.878Z,54.18
2023-04-15T23:51:37.829Z,54.02
2023-04-15T23:54:05.856Z,54.06
2023-04-15T23:56:33.625Z,54.38
2023-04-15T23:59:01.686Z,55.00
